createdAt,value
2019-03-08T05:53:04.125Z,49.69
2019-03-08T05:58:08.224Z,49.60
2019-03-08T07:00:40.473Z,51.63
2019-03-08T07:05:42.569Z,52.46
2019-03-08T07:10:44.745Z,52.17
2019-03-08T07:21:24.373Z,52.78
2019-03-08T07:26:39.739Z,52.09
2019-03-08T08:35:05.608Z,51.14
2019-03-08T08:40:13.104Z,50.78
2019-03-08T08:45:21.277Z,51.31
2019-03-08T08:50:26.655Z,49.75
2019-03-08T08:55:30.003Z,50.60
2019-03-08T09:00:35.288Z,51.00
2019-03-08T10:02:38.302Z,49.04
2019-03-08T10:07:46.517Z,49.11
2019-03-08T10:12:54.004Z,48.31
2019-03-08T10:17:56.057Z,48.89
2019-03-08T10:23:04.439Z,47.77
2019-03-08T11:30:39.783Z,46.22
2019-03-08T11:35:55.293Z,46.66
2019-03-08T11:40:58.601Z,46.55
2019-03-08T11:45:59.982Z,46.22
2019-03-08T11:56:55.804Z,45.78
2019-03-08T13:11:44.336Z,43.20
2019-03-08T13:23:05.761Z,43.32
2019-03-08T14:31:01.706Z,41.03
2019-03-08T14:36:06.048Z,40.14
2019-03-08T14:41:12.800Z,40.56
2019-03-08T14:46:24.142Z,42.08
2019-03-08T14:51:26.225Z,42.80
2019-03-08T14:56:31.926Z,42.48
2019-03-08T16:58:09.327Z,46.12
2019-03-08T17:03:20.702Z,46.56
2019-03-08T17:08:28.339Z,47.15
2019-03-08T17:13:33.683Z,46.61
2019-03-08T17:24:09.498Z,48.26
2019-03-08T17:29:13.886Z,48.21
2019-03-08T17:40:00.612Z,49.11
2019-03-08T17:45:06.056Z,49.42
2019-03-08T17:50:10.980Z,49.26
2019-03-08T17:55:13.166Z,48.77
2019-03-08T18:00:17.172Z,49.00
2019-03-08T18:05:25.314Z,48.80
2019-03-08T18:10:32.747Z,49.38
2019-03-08T18:21:37.239Z,49.49
2019-03-08T18:26:52.255Z,51.00
2019-03-08T18:32:15.729Z,50.24
2019-03-08T19:15:53.719Z,51.67
2019-03-08T19:21:05.150Z,51.39
2019-03-08T19:26:09.542Z,51.66
2019-03-08T19:31:11.875Z,51.60
2019-03-08T19:36:14.199Z,51.41
2019-03-08T19:41:16.487Z,51.59
2019-03-08T19:46:21.017Z,51.77
2019-03-08T19:51:23.247Z,51.43
2019-03-08T19:56:30.786Z,51.22
2019-03-08T20:01:42.440Z,50.75
2019-03-08T20:06:49.923Z,50.97
2019-03-08T20:11:56.501Z,51.20
2019-03-08T20:35:07.535Z,52.65
2019-03-08T20:52:40.852Z,52.23
2019-03-08T21:15:31.377Z,52.33
2019-03-08T21:20:32.773Z,51.95
2019-03-08T21:25:35.070Z,52.19
2019-03-08T21:30:36.414Z,51.72
2019-03-08T21:35:37.738Z,51.86
2019-03-08T21:40:39.200Z,52.16
2019-03-08T21:45:40.637Z,52.56
2019-03-08T21:50:41.985Z,52.38
2019-03-08T21:55:43.287Z,51.87
2019-03-08T22:00:45.422Z,52.11
2019-03-08T22:05:46.809Z,52.28
2019-03-08T22:10:49.277Z,52.36
2019-03-08T22:51:03.597Z,53.12
2019-03-08T22:56:13.327Z,52.78
2019-03-08T23:32:55.984Z,52.94
2019-03-08T23:37:57.330Z,53.03
2019-03-08T23:42:58.822Z,52.55
2019-03-08T23:48:00.289Z,52.91
2019-03-08T23:53:01.628Z,53.06
2019-03-08T23:58:03.818Z,52.74
